createdAt,value
2023-03-24T00:02:05.169Z,10.04
2023-03-24T00:04:34.786Z,9.98
2023-03-24T00:07:03.715Z,9.94
2023-03-24T00:09:32.745Z,9.90
2023-03-24T00:12:01.309Z,9.87
2023-03-24T00:14:31.115Z,9.81
2023-03-24T00:17:00.116Z,9.74
2023-03-24T00:19:28.581Z,9.68
2023-03-24T00:21:57.111Z,9.60
2023-03-24T00:24:25.757Z,9.52
2023-03-24T00:26:57.919Z,9.43
2023-03-24T00:29:28.325Z,9.33
2023-03-24T00:31:56.938Z,9.22
2023-03-24T00:34:26.123Z,9.13
2023-03-24T00:36:54.453Z,9.05
2023-03-24T00:39:23.225Z,8.98
2023-03-24T00:41:52.050Z,8.91
2023-03-24T00:44:20.793Z,8.84
2023-03-24T00:46:58.364Z,8.76
2023-03-24T00:49:45.017Z,8.67
2023-03-24T00:52:21.000Z,8.58
2023-03-24T00:54:52.412Z,8.53
2023-03-24T00:57:26.271Z,8.47
2023-03-24T00:59:54.867Z,8.42
2023-03-24T01:02:26.194Z,8.38
2023-03-24T01:04:57.616Z,8.34
2023-03-24T01:07:28.551Z,8.30
2023-03-24T01:09:58.527Z,8.26
2023-03-24T01:12:37.241Z,8.23
2023-03-24T01:15:22.516Z,8.21
2023-03-24T01:17:53.585Z,8.17
2023-03-24T01:20:24.020Z,8.16
2023-03-24T01:22:53.198Z,8.15
2023-03-24T01:25:24.088Z,8.14
2023-03-24T01:27:53.743Z,8.13
2023-03-24T01:30:25.348Z,8.09
2023-03-24T01:32:54.517Z,8.03
2023-03-24T01:35:28.961Z,7.97
2023-03-24T01:37:59.397Z,7.90
2023-03-24T01:40:32.041Z,7.83
2023-03-24T01:43:01.588Z,7.75
2023-03-24T01:45:39.687Z,7.67
2023-03-24T01:48:33.897Z,7.59
2023-03-24T01:51:25.114Z,7.51
2023-03-24T01:54:18.268Z,7.43
2023-03-24T01:56:53.930Z,7.36
2023-03-24T01:59:27.685Z,7.32
2023-03-24T02:02:22.495Z,7.30
2023-03-24T02:04:59.780Z,7.29
2023-03-24T02:07:40.264Z,7.26
2023-03-24T02:10:13.890Z,7.24
2023-03-24T02:12:43.893Z,7.21
2023-03-24T02:15:15.284Z,7.18
2023-03-24T02:18:09.439Z,7.14
2023-03-24T02:21:15.683Z,7.08
2023-03-24T02:23:54.517Z,7.01
2023-03-24T02:26:23.734Z,6.96
2023-03-24T02:29:04.784Z,6.90
2023-03-24T02:31:42.738Z,6.85
2023-03-24T02:34:42.192Z,6.82
2023-03-24T02:37:36.860Z,6.80
2023-03-24T02:40:24.729Z,6.79
2023-03-24T02:43:03.245Z,6.78
2023-03-24T02:45:47.531Z,6.76
2023-03-24T02:48:23.545Z,6.74
2023-03-24T02:51:13.938Z,6.72
2023-03-24T02:53:54.926Z,6.69
2023-03-24T02:56:45.295Z,6.66
2023-03-24T02:59:51.685Z,6.62
2023-03-24T03:02:58.165Z,6.57
2023-03-24T03:05:57.971Z,6.54
2023-03-24T03:08:32.743Z,6.53
2023-03-24T03:11:04.993Z,6.52
2023-03-24T03:13:44.815Z,6.51
2023-03-24T03:16:22.939Z,6.51
2023-03-24T03:19:03.709Z,6.48
2023-03-24T03:21:39.540Z,6.46
2023-03-24T03:24:15.833Z,6.44
2023-03-24T03:26:47.384Z,6.41
2023-03-24T03:29:23.228Z,6.38
2023-03-24T03:32:00.150Z,6.36
2023-03-24T03:34:43.120Z,6.32
2023-03-24T03:37:31.052Z,6.28
2023-03-24T03:40:07.114Z,6.26
2023-03-24T03:42:36.871Z,6.28
2023-03-24T03:45:07.766Z,6.27
2023-03-24T03:47:37.434Z,6.25
2023-03-24T03:50:08.974Z,6.24
2023-03-24T03:52:39.489Z,6.22
2023-03-24T03:55:09.761Z,6.23
2023-03-24T03:57:39.276Z,6.22
2023-03-24T04:00:20.173Z,6.21
2023-03-24T04:03:18.550Z,6.19
2023-03-24T04:06:14.793Z,6.19
2023-03-24T04:09:19.491Z,6.22
2023-03-24T04:12:19.527Z,6.23
2023-03-24T04:15:35.407Z,6.25
2023-03-24T04:18:27.439Z,6.26
2023-03-24T04:21:33.639Z,6.27
2023-03-24T04:24:33.012Z,6.28
2023-03-24T04:27:22.140Z,6.27
2023-03-24T04:29:53.362Z,6.27
2023-03-24T04:32:34.856Z,6.26
2023-03-24T04:35:10.357Z,6.28
2023-03-24T04:38:04.895Z,6.31
2023-03-24T04:40:37.293Z,6.34
2023-03-24T04:43:08.782Z,6.38
2023-03-24T04:45:37.517Z,6.43
2023-03-24T04:48:48.530Z,6.48
2023-03-24T04:51:37.808Z,6.50
2023-03-24T04:54:15.085Z,6.53
2023-03-24T04:56:58.171Z,6.56
2023-03-24T04:59:34.737Z,6.59
2023-03-24T05:02:04.813Z,6.64
2023-03-24T05:04:37.449Z,6.70
2023-03-24T05:07:15.795Z,6.80
2023-03-24T05:09:44.789Z,6.86
2023-03-24T05:12:14.287Z,6.91
2023-03-24T05:15:09.312Z,6.96
2023-03-24T05:17:38.025Z,6.99
2023-03-24T05:20:11.017Z,7.01
2023-03-24T05:22:41.512Z,7.03
2023-03-24T05:25:11.767Z,7.07
2023-03-24T05:31:21.030Z,7.18
2023-03-24T05:33:58.489Z,7.23
2023-03-24T05:36:27.711Z,7.30
2023-03-24T05:38:57.054Z,7.36
2023-03-24T05:41:29.224Z,7.43
2023-03-24T05:43:57.910Z,7.49
2023-03-24T05:46:26.817Z,7.57
2023-03-24T05:48:56.410Z,7.64
2023-03-24T05:51:31.040Z,7.71
2023-03-24T05:54:06.529Z,7.78
2023-03-24T05:56:41.955Z,7.86
2023-03-24T05:59:12.151Z,7.93
2023-03-24T06:01:59.801Z,8.01
2023-03-24T06:04:46.698Z,8.07
2023-03-24T06:07:18.955Z,8.15
2023-03-24T06:09:51.125Z,8.22
2023-03-24T06:12:21.852Z,8.29
2023-03-24T06:14:58.140Z,8.37
2023-03-24T06:17:28.912Z,8.46
2023-03-24T06:20:03.173Z,8.56
2023-03-24T06:22:45.888Z,8.69
2023-03-24T06:25:20.447Z,8.78
2023-03-24T06:28:12.530Z,8.84
2023-03-24T06:30:44.743Z,8.89
2023-03-24T06:33:14.191Z,8.94
2023-03-24T06:35:44.521Z,8.99
2023-03-24T06:38:16.565Z,9.06
2023-03-24T06:40:46.084Z,9.10
2023-03-24T06:43:14.854Z,9.14
2023-03-24T06:45:46.125Z,9.19
2023-03-24T06:48:24.870Z,9.23
2023-03-24T06:50:56.727Z,9.27
2023-03-24T06:53:26.127Z,9.31
2023-03-24T06:55:56.277Z,9.37
2023-03-24T06:58:25.850Z,9.47
2023-03-24T07:01:07.338Z,9.56
2023-03-24T07:03:39.388Z,9.68
2023-03-24T07:06:40.569Z,9.82
2023-03-24T07:09:16.403Z,9.95
2023-03-24T07:11:48.565Z,10.08
2023-03-24T07:14:17.257Z,10.20
2023-03-24T07:16:49.810Z,10.32
2023-03-24T07:19:46.091Z,10.48
2023-03-24T07:22:37.904Z,10.64
2023-03-24T07:25:29.690Z,10.79
2023-03-24T07:28:04.363Z,10.95
2023-03-24T07:30:40.023Z,11.08
2023-03-24T07:33:12.708Z,11.20
2023-03-24T07:35:43.785Z,11.31
2023-03-24T07:38:13.036Z,11.44
2023-03-24T07:40:41.578Z,11.57
2023-03-24T07:43:11.170Z,11.70
2023-03-24T07:45:51.281Z,11.87
2023-03-24T07:48:19.954Z,12.08
2023-03-24T07:50:48.432Z,12.27
2023-03-24T07:53:38.302Z,12.43
2023-03-24T07:56:08.221Z,12.55
2023-03-24T07:58:40.309Z,12.68
2023-03-24T08:01:30.041Z,12.81
2023-03-24T08:04:01.110Z,12.92
2023-03-24T08:07:09.057Z,13.06
2023-03-24T08:09:37.520Z,13.16
2023-03-24T08:12:13.806Z,13.26
2023-03-24T08:14:46.156Z,13.38
2023-03-24T08:17:14.537Z,13.49
2023-03-24T08:19:56.241Z,13.65
2023-03-24T08:22:28.489Z,13.79
2023-03-24T08:24:56.776Z,13.92
2023-03-24T08:27:25.261Z,14.05
2023-03-24T08:29:53.502Z,14.15
2023-03-24T08:32:21.773Z,14.23
2023-03-24T08:34:50.179Z,14.33
2023-03-24T08:37:18.756Z,14.42
2023-03-24T08:39:47.939Z,14.51
2023-03-24T08:42:16.512Z,14.63
2023-03-24T08:44:45.176Z,14.75
2023-03-24T08:47:13.501Z,14.84
2023-03-24T08:49:41.918Z,14.94
2023-03-24T08:52:10.303Z,15.02
2023-03-24T08:54:38.847Z,15.12
2023-03-24T08:57:07.246Z,15.27
2023-03-24T08:59:38.614Z,15.42
2023-03-24T09:02:12.348Z,15.53
2023-03-24T09:04:43.118Z,15.61
2023-03-24T09:07:12.912Z,15.67
2023-03-24T09:09:41.360Z,15.72
2023-03-24T09:12:09.958Z,15.81
2023-03-24T09:14:38.419Z,15.88
2023-03-24T09:17:07.073Z,15.90
2023-03-24T09:19:35.470Z,15.96
2023-03-24T09:22:03.860Z,16.05
2023-03-24T09:24:32.291Z,16.12
2023-03-24T09:27:01.269Z,16.17
2023-03-24T09:29:30.765Z,16.26
2023-03-24T09:31:59.448Z,16.31
2023-03-24T09:34:28.163Z,16.38
2023-03-24T09:36:56.835Z,16.47
2023-03-24T09:39:25.248Z,16.55
2023-03-24T09:41:56.318Z,16.59
2023-03-24T09:44:39.710Z,16.63
2023-03-24T09:47:29.505Z,16.71
2023-03-24T09:50:03.376Z,16.82
2023-03-24T09:52:40.945Z,16.90
2023-03-24T09:55:18.737Z,17.00
2023-03-24T09:57:50.020Z,17.11
2023-03-24T10:00:28.147Z,17.26
2023-03-24T10:03:11.455Z,17.40
2023-03-24T10:05:59.390Z,17.51
2023-03-24T10:08:43.426Z,17.58
2023-03-24T10:11:11.818Z,17.71
2023-03-24T10:13:58.720Z,17.81
2023-03-24T10:16:58.302Z,17.91
2023-03-24T10:19:41.411Z,18.04
2023-03-24T10:22:32.826Z,18.15
2023-03-24T10:25:26.929Z,18.19
2023-03-24T10:28:03.159Z,18.23
2023-03-24T10:30:39.997Z,18.29
2023-03-24T10:33:11.852Z,18.37
2023-03-24T10:36:00.254Z,18.47
2023-03-24T10:38:32.477Z,18.52
2023-03-24T10:41:03.056Z,18.57
2023-03-24T10:43:32.550Z,18.60
2023-03-24T10:46:03.150Z,18.64
2023-03-24T10:48:42.456Z,18.55
2023-03-24T10:51:26.575Z,18.36
2023-03-24T10:54:16.605Z,18.28
2023-03-24T10:56:49.016Z,18.31
2023-03-24T10:59:26.056Z,18.44
2023-03-24T11:02:13.095Z,18.62
2023-03-24T11:04:49.478Z,18.77
2023-03-24T11:07:21.383Z,18.86
2023-03-24T11:10:10.552Z,18.94
2023-03-24T11:12:44.785Z,19.15
2023-03-24T11:15:33.812Z,19.31
2023-03-24T11:18:16.714Z,19.53
2023-03-24T11:20:56.850Z,19.63
2023-03-24T11:23:31.520Z,19.71
2023-03-24T11:26:09.379Z,19.82
2023-03-24T11:28:47.402Z,19.92
2023-03-24T11:31:24.760Z,19.88
2023-03-24T11:34:07.881Z,19.95
2023-03-24T11:36:59.726Z,20.04
2023-03-24T11:39:34.318Z,20.16
2023-03-24T11:42:13.670Z,20.26
2023-03-24T11:44:49.634Z,20.33
2023-03-24T11:47:40.480Z,20.41
2023-03-24T11:50:12.105Z,20.50
2023-03-24T11:52:55.828Z,20.56
2023-03-24T11:55:36.259Z,20.59
2023-03-24T11:58:16.977Z,20.65
2023-03-24T12:01:12.848Z,20.74
2023-03-24T12:04:20.671Z,20.84
2023-03-24T12:07:08.146Z,20.86
2023-03-24T12:09:51.205Z,20.91
2023-03-24T12:12:34.818Z,20.92
2023-03-24T12:15:20.718Z,20.95
2023-03-24T12:18:14.743Z,21.02
2023-03-24T12:21:14.055Z,21.00
2023-03-24T12:23:55.442Z,21.02
2023-03-24T12:26:28.792Z,21.07
2023-03-24T12:28:59.904Z,21.18
2023-03-24T12:31:55.182Z,21.31
2023-03-24T12:34:39.721Z,21.38
2023-03-24T12:37:16.618Z,21.41
2023-03-24T12:40:11.433Z,21.46
2023-03-24T12:42:49.176Z,21.48
2023-03-24T12:45:35.910Z,21.54
2023-03-24T12:48:24.530Z,21.58
2023-03-24T12:51:14.194Z,21.62
2023-03-24T12:53:53.930Z,21.61
2023-03-24T12:56:57.971Z,21.62
2023-03-24T12:59:33.946Z,21.61
2023-03-24T13:02:27.589Z,21.68
2023-03-24T13:05:05.665Z,21.74
2023-03-24T13:07:44.122Z,21.77
2023-03-24T13:10:22.221Z,21.84
2023-03-24T13:13:23.217Z,21.87
2023-03-24T13:15:59.023Z,21.86
2023-03-24T13:18:36.929Z,21.83
2023-03-24T13:21:19.476Z,21.80
2023-03-24T13:23:57.063Z,21.73
2023-03-24T13:26:42.968Z,21.73
2023-03-24T13:29:48.378Z,21.83
2023-03-24T13:32:20.462Z,21.88
2023-03-24T13:35:07.168Z,21.89
2023-03-24T13:37:43.378Z,21.93
2023-03-24T13:40:23.583Z,21.95
2023-03-24T13:43:13.261Z,21.97
2023-03-24T13:45:49.694Z,21.88
2023-03-24T13:48:23.610Z,21.80
2023-03-24T13:50:55.462Z,21.75
2023-03-24T13:53:31.054Z,21.76
2023-03-24T13:56:02.685Z,21.77
2023-03-24T13:58:51.061Z,21.74
2023-03-24T14:01:42.355Z,21.71
2023-03-24T14:04:20.020Z,21.65
2023-03-24T14:06:54.697Z,21.60
2023-03-24T14:09:23.188Z,21.57
2023-03-24T14:12:03.860Z,21.55
2023-03-24T14:15:19.136Z,21.49
2023-03-24T14:17:54.085Z,21.44
2023-03-24T14:20:28.422Z,21.39
2023-03-24T14:22:57.018Z,21.35
2023-03-24T14:25:29.604Z,21.34
2023-03-24T14:28:47.222Z,21.32
2023-03-24T14:31:15.928Z,21.27
2023-03-24T14:33:53.917Z,21.22
2023-03-24T14:36:39.796Z,21.17
2023-03-24T14:39:40.090Z,21.10
2023-03-24T14:42:27.483Z,21.01
2023-03-24T14:44:58.008Z,20.98
2023-03-24T14:47:31.132Z,20.96
2023-03-24T14:50:04.243Z,20.91
2023-03-24T14:52:38.012Z,20.88
2023-03-24T14:55:19.991Z,20.85
2023-03-24T14:57:53.719Z,20.82
2023-03-24T15:01:06.474Z,20.78
2023-03-24T15:03:50.283Z,20.73
2023-03-24T15:06:23.687Z,20.71
2023-03-24T15:09:06.777Z,20.66
2023-03-24T15:11:38.531Z,20.62
2023-03-24T15:14:15.127Z,20.58
2023-03-24T15:16:53.818Z,20.52
2023-03-24T15:19:26.403Z,20.44
2023-03-24T15:22:10.565Z,20.38
2023-03-24T15:24:42.592Z,20.30
2023-03-24T15:27:20.617Z,20.24
2023-03-24T15:29:56.403Z,20.20
2023-03-24T15:32:32.271Z,20.17
2023-03-24T15:35:07.161Z,20.14
2023-03-24T15:37:41.313Z,20.08
2023-03-24T15:40:30.434Z,20.03
2023-03-24T15:43:06.844Z,19.96
2023-03-24T15:45:36.597Z,19.89
2023-03-24T15:48:15.171Z,19.82
2023-03-24T15:51:03.039Z,19.74
2023-03-24T15:53:44.735Z,19.65
2023-03-24T15:56:26.139Z,19.56
2023-03-24T15:58:57.786Z,19.47
2023-03-24T16:01:31.811Z,19.38
2023-03-24T16:04:06.381Z,19.29
2023-03-24T16:06:37.543Z,19.22
2023-03-24T16:09:12.143Z,19.16
2023-03-24T16:11:42.290Z,19.08
2023-03-24T16:14:26.378Z,18.99
2023-03-24T16:16:56.955Z,18.85
2023-03-24T16:19:26.180Z,18.73
2023-03-24T16:21:55.550Z,18.60
2023-03-24T16:24:23.970Z,18.48
2023-03-24T16:26:52.421Z,18.36
2023-03-24T16:29:23.381Z,18.24
2023-03-24T16:31:53.649Z,18.13
2023-03-24T16:34:23.543Z,18.03
2023-03-24T16:36:54.637Z,17.95
2023-03-24T16:39:29.073Z,17.85
2023-03-24T16:41:58.213Z,17.75
2023-03-24T16:44:27.846Z,17.66
2023-03-24T16:46:56.549Z,17.56
2023-03-24T16:49:25.641Z,17.47
2023-03-24T16:51:54.113Z,17.38
2023-03-24T16:54:22.523Z,17.30
2023-03-24T16:56:51.188Z,17.23
2023-03-24T16:59:19.985Z,17.18
2023-03-24T17:01:53.644Z,17.11
2023-03-24T20:27:28.304Z,14.06
2023-03-24T20:29:55.695Z,14.00
2023-03-24T20:32:23.214Z,13.93
2023-03-24T20:34:53.839Z,13.84
2023-03-24T20:37:21.090Z,13.75
2023-03-24T20:39:48.350Z,13.67
2023-03-24T20:42:17.025Z,13.61
2023-03-24T20:44:44.890Z,13.56
2023-03-24T20:47:12.255Z,13.48
2023-03-24T20:49:40.111Z,13.45
2023-03-24T20:52:07.380Z,13.42
2023-03-24T20:54:34.932Z,13.38
2023-03-24T20:57:03.267Z,13.34
2023-03-24T20:59:30.990Z,13.26
2023-03-24T21:02:01.633Z,13.18
2023-03-24T21:04:28.952Z,13.12
2023-03-24T21:06:56.326Z,13.09
2023-03-24T21:09:24.266Z,13.01
2023-03-24T21:11:51.940Z,12.92
2023-03-24T21:14:20.008Z,12.82
2023-03-24T21:16:47.574Z,12.71
2023-03-24T21:19:15.842Z,12.61
2023-03-24T21:21:44.327Z,12.53
2023-03-24T21:24:12.805Z,12.48
2023-03-24T21:26:40.193Z,12.46
2023-03-24T21:29:07.933Z,12.42
2023-03-24T21:31:35.185Z,12.36
2023-03-24T21:34:02.534Z,12.29
2023-03-24T21:36:30.628Z,12.22
2023-03-24T21:38:58.787Z,12.12
2023-03-24T21:41:26.028Z,12.05
2023-03-24T21:43:53.633Z,11.97
2023-03-24T21:46:22.236Z,11.87
2023-03-24T21:48:55.136Z,11.83
2023-03-24T21:51:30.245Z,11.79
2023-03-24T21:53:58.878Z,11.78
2023-03-24T21:56:26.123Z,11.75
2023-03-24T21:58:54.475Z,11.69
2023-03-24T22:01:22.636Z,11.62
2023-03-24T22:03:50.791Z,11.58
2023-03-24T22:06:18.016Z,11.55
2023-03-24T22:08:48.324Z,11.53
2023-03-24T22:11:18.043Z,11.50
2023-03-24T22:13:46.121Z,11.48
2023-03-24T22:16:14.303Z,11.45
2023-03-24T22:18:41.974Z,11.40
2023-03-24T22:21:10.829Z,11.36
2023-03-24T22:23:41.766Z,11.32
2023-03-24T22:26:12.183Z,11.30
2023-03-24T22:28:40.784Z,11.27
2023-03-24T22:31:10.685Z,11.21
2023-03-24T22:33:38.586Z,11.15
2023-03-24T22:36:06.921Z,11.10
2023-03-24T22:38:34.921Z,11.04
2023-03-24T22:41:05.988Z,10.97
2023-03-24T22:43:34.633Z,10.91
2023-03-24T22:46:02.522Z,10.88
2023-03-24T22:49:08.666Z,10.87
2023-03-24T22:51:37.655Z,10.81
2023-03-24T22:54:06.451Z,10.76
2023-03-24T22:56:34.854Z,10.72
2023-03-24T22:59:04.697Z,10.67
2023-03-24T23:01:33.395Z,10.63
2023-03-24T23:04:02.211Z,10.59
2023-03-24T23:06:31.248Z,10.53
2023-03-24T23:09:02.768Z,10.47
2023-03-24T23:11:32.285Z,10.43
2023-03-24T23:14:06.790Z,10.39
2023-03-24T23:16:38.045Z,10.34
2023-03-24T23:19:07.435Z,10.29
2023-03-24T23:21:36.429Z,10.28
2023-03-24T23:24:05.637Z,10.28
2023-03-24T23:26:34.524Z,10.24
2023-03-24T23:29:02.804Z,10.19
2023-03-24T23:31:32.046Z,10.14
2023-03-24T23:34:00.884Z,10.09
2023-03-24T23:36:29.370Z,10.05
2023-03-24T23:38:57.949Z,10.03
2023-03-24T23:41:26.634Z,9.99
2023-03-24T23:43:55.359Z,9.95
2023-03-24T23:46:24.824Z,9.91
2023-03-24T23:48:53.728Z,9.86
2023-03-24T23:51:22.406Z,9.83
2023-03-24T23:53:51.192Z,9.80
2023-03-24T23:56:21.841Z,9.76
2023-03-24T23:58:50.403Z,9.73
